createdAt,value
2023-01-03T00:00:16.477Z,5.30
2023-01-03T00:00:48.451Z,5.30
2023-01-03T00:01:20.130Z,5.29
2023-01-03T00:01:52.693Z,5.29
2023-01-03T00:02:24.108Z,5.27
2023-01-03T00:02:55.657Z,5.28
2023-01-03T00:03:27.428Z,5.25
2023-01-03T00:03:59.911Z,5.28
2023-01-03T00:04:31.322Z,5.27
2023-01-03T00:05:04.090Z,5.26
2023-01-03T00:05:35.891Z,5.27
2023-01-03T00:06:16.654Z,5.26
2023-01-03T00:06:50.508Z,5.25
2023-01-03T00:07:34.016Z,5.23
2023-01-03T00:08:05.701Z,5.24
2023-01-03T00:08:37.047Z,5.20
2023-01-03T00:09:10.560Z,5.21
2023-01-03T00:09:41.918Z,5.20
2023-01-03T00:10:13.242Z,5.21
2023-01-03T00:10:44.586Z,5.21
2023-01-03T00:11:19.256Z,5.20
2023-01-03T00:12:11.504Z,5.19
2023-01-03T00:12:43.070Z,5.18
2023-01-03T00:13:14.397Z,5.17
2023-01-03T00:13:45.917Z,5.18
2023-01-03T00:14:43.966Z,5.16
2023-01-03T00:15:15.762Z,5.14
2023-01-03T00:15:47.310Z,5.15
2023-01-03T00:16:19.942Z,5.12
2023-01-03T00:16:53.606Z,5.13
2023-01-03T00:17:25.498Z,5.12
2023-01-03T00:17:56.949Z,5.12
2023-01-03T00:18:28.280Z,5.11
2023-01-03T00:18:59.649Z,5.07
2023-01-03T00:19:36.553Z,5.11
2023-01-03T00:20:09.891Z,5.11
2023-01-03T00:20:41.355Z,5.08
2023-01-03T00:21:13.549Z,5.10
2023-01-03T00:21:45.688Z,5.11
2023-01-03T00:22:17.705Z,5.10
2023-01-03T00:22:49.175Z,5.07
2023-01-03T00:23:20.622Z,5.07
2023-01-03T00:23:51.998Z,5.09
2023-01-03T00:24:23.556Z,5.10
2023-01-03T00:24:54.983Z,5.06
2023-01-03T00:25:27.129Z,5.09
2023-01-03T00:25:58.540Z,5.07
2023-01-03T00:26:29.958Z,5.09
2023-01-03T00:27:01.563Z,5.08
2023-01-03T00:27:32.869Z,5.09
2023-01-03T00:28:04.535Z,5.08
2023-01-03T00:28:36.077Z,5.08
2023-01-03T00:29:08.480Z,5.08
2023-01-03T00:29:40.170Z,5.08
2023-01-03T00:30:11.849Z,5.08
2023-01-03T00:30:43.263Z,5.05
2023-01-03T00:31:14.685Z,5.05
2023-01-03T00:31:46.191Z,5.08
2023-01-03T00:32:17.703Z,5.06
2023-01-03T00:32:49.113Z,5.07
2023-01-03T00:33:20.729Z,5.06
2023-01-03T00:33:52.278Z,5.06
2023-01-03T00:34:24.064Z,5.07
2023-01-03T00:34:58.885Z,5.06
2023-01-03T00:35:32.948Z,5.06
2023-01-03T00:36:06.333Z,5.05
2023-01-03T00:36:38.502Z,5.05
2023-01-03T00:37:10.114Z,5.05
2023-01-03T00:37:41.443Z,5.06
2023-01-03T00:38:12.849Z,5.06
2023-01-03T00:38:44.385Z,5.07
2023-01-03T00:39:15.779Z,5.06
2023-01-03T00:39:47.201Z,5.08
2023-01-03T00:40:18.526Z,5.05
2023-01-03T00:40:49.858Z,5.06
2023-01-03T00:41:21.532Z,5.07
2023-01-03T00:41:53.625Z,5.05
2023-01-03T00:42:25.047Z,5.06
2023-01-03T00:43:22.489Z,5.09
2023-01-03T00:43:53.953Z,5.08
2023-01-03T00:44:25.497Z,5.07
2023-01-03T00:44:56.814Z,5.06
2023-01-03T00:45:30.982Z,5.06
2023-01-03T00:46:06.209Z,5.06
2023-01-03T00:46:37.771Z,5.05
2023-01-03T00:47:09.282Z,5.05
2023-01-03T00:47:40.666Z,5.05
2023-01-03T00:48:12.266Z,5.03
2023-01-03T00:48:43.887Z,5.05
2023-01-03T00:49:15.226Z,5.05
2023-01-03T00:49:46.695Z,5.05
2023-01-03T00:50:18.017Z,5.05
2023-01-03T00:50:49.662Z,5.06
2023-01-03T00:51:23.704Z,5.07
2023-01-03T00:51:55.165Z,5.07
2023-01-03T00:52:26.635Z,5.08
2023-01-03T00:52:58.021Z,5.09
2023-01-03T00:53:29.411Z,5.10
2023-01-03T00:54:02.581Z,5.11
2023-01-03T00:54:34.089Z,5.12
2023-01-03T00:55:06.008Z,5.11
2023-01-03T00:55:37.566Z,5.11
2023-01-03T00:56:12.184Z,5.13
2023-01-03T00:56:45.520Z,5.12
2023-01-03T00:57:16.957Z,5.12
2023-01-03T00:57:48.330Z,5.12
2023-01-03T00:58:19.715Z,5.12
2023-01-03T00:58:51.546Z,5.15
2023-01-03T00:59:23.147Z,5.16
2023-01-03T00:59:54.524Z,5.15
2023-01-03T01:00:25.861Z,5.15
2023-01-03T01:00:57.251Z,5.15
2023-01-03T01:01:43.949Z,5.14
2023-01-03T01:02:20.400Z,5.15
2023-01-03T01:02:55.168Z,5.14
2023-01-03T01:03:26.895Z,5.15
2023-01-03T01:04:04.102Z,5.16
2023-01-03T01:04:35.540Z,5.15
2023-01-03T01:05:07.217Z,5.14
2023-01-03T01:05:38.652Z,5.14
2023-01-03T01:06:17.060Z,5.13
2023-01-03T01:06:51.970Z,5.12
2023-01-03T01:07:23.300Z,5.14
2023-01-03T01:07:54.646Z,5.13
2023-01-03T01:08:26.023Z,5.13
2023-01-03T01:08:59.430Z,5.13
2023-01-03T01:09:34.055Z,5.13
2023-01-03T01:10:05.858Z,5.14
2023-01-03T01:11:01.597Z,5.12
2023-01-03T01:11:33.782Z,5.13
2023-01-03T01:12:07.166Z,5.14
2023-01-03T01:12:38.874Z,5.13
2023-01-03T01:13:10.233Z,5.11
2023-01-03T01:13:42.828Z,5.13
2023-01-03T01:14:21.186Z,5.13
2023-01-03T01:14:52.662Z,5.13
2023-01-03T01:15:24.071Z,5.13
2023-01-03T01:15:55.813Z,5.14
2023-01-03T01:16:29.965Z,5.14
2023-01-03T01:17:09.755Z,5.14
2023-01-03T01:17:41.748Z,5.14
2023-01-03T01:18:13.113Z,5.14
2023-01-03T01:18:46.631Z,5.13
2023-01-03T01:19:20.334Z,5.13
2023-01-03T01:19:51.827Z,5.14
2023-01-03T01:20:23.207Z,5.13
2023-01-03T01:20:54.645Z,5.11
2023-01-03T01:21:31.328Z,5.14
2023-01-03T01:22:02.855Z,5.12
2023-01-03T01:22:35.093Z,5.12
2023-01-03T01:23:06.430Z,5.13
2023-01-03T01:24:28.649Z,5.11
2023-01-03T01:25:00.187Z,5.11
2023-01-03T01:25:34.072Z,5.10
2023-01-03T01:26:07.846Z,5.11
2023-01-03T01:26:39.308Z,5.06
2023-01-03T01:27:11.033Z,5.07
2023-01-03T01:27:42.575Z,5.08
2023-01-03T01:28:13.994Z,5.08
2023-01-03T01:28:45.405Z,5.06
2023-01-03T01:29:17.982Z,5.05
2023-01-03T01:29:49.367Z,5.06
2023-01-03T01:30:21.230Z,5.06
2023-01-03T01:30:52.635Z,5.05
2023-01-03T01:31:26.170Z,5.04
2023-01-03T01:31:57.560Z,5.03
2023-01-03T01:32:28.942Z,5.02
2023-01-03T01:33:00.333Z,5.02
2023-01-03T01:33:34.239Z,5.01
2023-01-03T01:34:06.069Z,5.01
2023-01-03T01:34:37.796Z,5.01
2023-01-03T01:35:09.408Z,5.00
2023-01-03T01:35:40.818Z,4.97
2023-01-03T01:36:24.573Z,4.98
2023-01-03T01:37:14.455Z,4.99
2023-01-03T01:37:45.782Z,4.97
2023-01-03T01:38:17.168Z,4.95
2023-01-03T01:38:54.298Z,4.96
2023-01-03T01:39:28.116Z,4.95
2023-01-03T01:39:59.540Z,4.94
2023-01-03T01:40:31.345Z,4.94
2023-01-03T01:41:03.047Z,4.93
2023-01-03T01:41:54.537Z,4.92
2023-01-03T01:42:44.424Z,4.93
2023-01-03T01:43:42.238Z,4.92
2023-01-03T01:44:44.529Z,4.90
2023-01-03T01:45:16.010Z,4.89
2023-01-03T01:45:47.572Z,4.88
2023-01-03T01:46:29.090Z,4.86
2023-01-03T01:47:02.216Z,4.85
2023-01-03T01:47:41.464Z,4.85
2023-01-03T01:48:14.377Z,4.82
2023-01-03T01:48:47.350Z,4.83
2023-01-03T01:49:23.535Z,4.84
2023-01-03T01:50:02.467Z,4.83
2023-01-03T01:50:50.837Z,4.83
2023-01-03T01:51:26.150Z,4.82
2023-01-03T01:51:57.678Z,4.81
2023-01-03T01:52:32.357Z,4.81
2023-01-03T01:53:18.392Z,4.78
2023-01-03T01:53:54.130Z,4.79
2023-01-03T01:54:25.511Z,4.78
2023-01-03T01:54:58.878Z,4.78
2023-01-03T01:55:37.152Z,4.76
2023-01-03T01:56:37.977Z,4.77
2023-01-03T01:57:15.308Z,4.77
2023-01-03T01:57:46.942Z,4.75
2023-01-03T01:58:18.643Z,4.75
2023-01-03T01:58:52.653Z,4.75
2023-01-03T01:59:25.089Z,4.74
2023-01-03T01:59:56.542Z,4.72
2023-01-03T02:00:28.964Z,4.73
2023-01-03T02:01:00.770Z,4.73
2023-01-03T02:01:34.965Z,4.72
2023-01-03T02:02:06.872Z,4.70
2023-01-03T02:02:38.568Z,4.72
2023-01-03T02:03:11.262Z,4.69
2023-01-03T02:03:46.562Z,4.72
2023-01-03T02:04:23.056Z,4.71
2023-01-03T02:04:56.675Z,4.69
2023-01-03T02:05:29.133Z,4.68
2023-01-03T02:06:02.776Z,4.68
2023-01-03T02:06:34.449Z,4.68
2023-01-03T02:07:07.666Z,4.68
2023-01-03T02:07:39.693Z,4.68
2023-01-03T02:08:11.123Z,4.67
2023-01-03T02:08:42.763Z,4.66
2023-01-03T02:09:14.190Z,4.67
2023-01-03T02:09:48.879Z,4.67
2023-01-03T02:11:05.340Z,4.66
2023-01-03T02:12:15.819Z,4.64
2023-01-03T02:13:18.373Z,4.64
2023-01-03T02:14:13.017Z,4.62
2023-01-03T02:15:08.704Z,4.61
2023-01-03T02:15:45.360Z,4.60
2023-01-03T02:16:51.988Z,4.59
2023-01-03T02:17:36.366Z,4.58
2023-01-03T02:18:32.068Z,4.57
2023-01-03T02:19:25.778Z,4.56
2023-01-03T02:20:34.829Z,4.55
2023-01-03T02:21:24.953Z,4.53
2023-01-03T02:22:08.144Z,4.53
2023-01-03T02:22:47.556Z,4.50
2023-01-03T02:23:39.503Z,4.50
2023-01-03T02:24:21.861Z,4.50
2023-01-03T02:25:14.574Z,4.50
2023-01-03T02:26:20.024Z,4.49
2023-01-03T02:26:59.278Z,4.48
2023-01-03T02:27:59.849Z,4.48
2023-01-03T02:28:40.020Z,4.48
2023-01-03T02:29:29.890Z,4.48
2023-01-03T02:30:32.881Z,4.48
2023-01-03T02:31:25.458Z,4.47
2023-01-03T02:32:07.041Z,4.47
2023-01-03T02:33:06.231Z,4.49
2023-01-03T02:33:45.882Z,4.48
2023-01-03T02:34:21.441Z,4.48
2023-01-03T02:35:06.238Z,4.50
2023-01-03T02:35:44.221Z,4.50
2023-01-03T02:36:40.506Z,4.50
2023-01-03T02:37:21.470Z,4.51
2023-01-03T02:38:05.362Z,4.50
2023-01-03T02:38:50.510Z,4.49
2023-01-03T02:39:40.834Z,4.51
2023-01-03T02:41:02.922Z,4.52
2023-01-03T02:41:44.342Z,4.51
2023-01-03T02:42:43.668Z,4.52
2023-01-03T02:43:24.747Z,4.53
2023-01-03T02:44:04.029Z,4.54
2023-01-03T02:44:38.260Z,4.55
2023-01-03T02:45:28.116Z,4.55
2023-01-03T02:46:06.367Z,4.56
2023-01-03T02:46:45.712Z,4.56
2023-01-03T02:47:22.253Z,4.57
2023-01-03T02:48:03.493Z,4.58
2023-01-03T02:48:56.229Z,4.59
2023-01-03T02:49:34.959Z,4.58
2023-01-03T02:50:11.899Z,4.59
2023-01-03T02:50:48.671Z,4.60
2023-01-03T02:51:35.163Z,4.59
2023-01-03T02:52:11.364Z,4.61
2023-01-03T02:52:45.088Z,4.61
2023-01-03T02:53:25.076Z,4.60
2023-01-03T02:53:59.061Z,4.61
2023-01-03T02:54:42.098Z,4.63
2023-01-03T02:55:19.550Z,4.63
2023-01-03T02:55:53.147Z,4.62
2023-01-03T02:56:33.551Z,4.63
2023-01-03T02:57:10.500Z,4.62
2023-01-03T02:57:50.356Z,4.64
2023-01-03T02:58:28.084Z,4.64
2023-01-03T02:59:03.283Z,4.64
2023-01-03T02:59:42.286Z,4.64
2023-01-03T03:00:16.478Z,4.64
2023-01-03T03:00:52.621Z,4.64
2023-01-03T03:01:25.919Z,4.66
2023-01-03T03:01:59.534Z,4.66
2023-01-03T03:02:35.247Z,4.66
2023-01-03T03:03:13.777Z,4.66
2023-01-03T03:03:46.500Z,4.67
2023-01-03T03:04:19.869Z,4.68
2023-01-03T03:04:55.574Z,4.68
2023-01-03T03:05:34.114Z,4.68
2023-01-03T03:06:19.129Z,4.68
2023-01-03T03:07:19.404Z,4.69
2023-01-03T03:07:50.891Z,4.69
2023-01-03T03:08:22.545Z,4.70
2023-01-03T03:08:53.997Z,4.68
2023-01-03T03:09:25.325Z,4.69
2023-01-03T03:10:15.669Z,4.70
2023-01-03T03:11:05.773Z,4.70
2023-01-03T03:11:58.331Z,4.71
2023-01-03T03:12:50.733Z,4.71
2023-01-03T03:13:35.135Z,4.71
2023-01-03T03:14:22.996Z,4.73
2023-01-03T03:14:55.466Z,4.73
2023-01-03T03:15:36.231Z,4.73
2023-01-03T03:16:15.984Z,4.73
2023-01-03T03:16:51.250Z,4.74
2023-01-03T03:17:28.428Z,4.75
2023-01-03T03:18:04.915Z,4.73
2023-01-03T03:18:58.131Z,4.74
2023-01-03T03:19:50.428Z,4.76
2023-01-03T03:20:40.376Z,4.76
2023-01-03T03:21:34.117Z,4.77
2023-01-03T03:22:30.084Z,4.77
2023-01-03T03:23:30.554Z,4.77
2023-01-03T03:24:35.321Z,4.78
2023-01-03T03:25:15.899Z,4.78
2023-01-03T03:25:54.646Z,4.78
2023-01-03T03:26:33.165Z,4.79
2023-01-03T03:27:29.166Z,4.79
2023-01-03T03:28:25.603Z,4.80
2023-01-03T03:29:04.216Z,4.82
2023-01-03T03:29:35.891Z,4.83
2023-01-03T03:30:11.983Z,4.82
2023-01-03T03:30:46.112Z,4.81
2023-01-03T03:31:20.220Z,4.83
2023-01-03T03:31:52.975Z,4.84
2023-01-03T03:32:27.451Z,4.85
2023-01-03T03:33:05.581Z,4.85
2023-01-03T03:33:57.470Z,4.85
2023-01-03T03:34:35.451Z,4.86
2023-01-03T03:35:11.538Z,4.88
2023-01-03T03:36:07.613Z,4.89
2023-01-03T03:36:50.086Z,4.88
2023-01-03T03:37:25.035Z,4.89
2023-01-03T03:37:59.010Z,4.88
2023-01-03T03:38:36.829Z,4.89
2023-01-03T03:39:28.652Z,4.89
2023-01-03T03:40:18.732Z,4.89
2023-01-03T03:41:24.354Z,4.89
2023-01-03T03:42:20.224Z,4.89
2023-01-03T03:43:19.451Z,4.89
2023-01-03T03:44:39.700Z,4.88
2023-01-03T03:45:24.658Z,4.90
2023-01-03T03:47:32.273Z,4.91
2023-01-03T03:48:52.848Z,4.90
2023-01-03T03:49:39.907Z,4.89
2023-01-03T03:50:28.250Z,4.91
2023-01-03T03:51:10.173Z,4.92
2023-01-03T03:51:44.083Z,4.93
2023-01-03T03:52:19.191Z,4.92
2023-01-03T03:52:56.000Z,4.93
2023-01-03T03:53:31.608Z,4.93
2023-01-03T03:54:08.807Z,4.93
2023-01-03T03:54:45.401Z,4.95
2023-01-03T03:55:25.601Z,4.95
2023-01-03T03:56:01.654Z,4.94
2023-01-03T03:56:36.470Z,4.96
2023-01-03T03:57:22.833Z,4.97
2023-01-03T03:58:00.870Z,4.94
2023-01-03T03:58:40.256Z,4.97
2023-01-03T03:59:12.217Z,4.97
2023-01-03T03:59:48.481Z,4.97
2023-01-03T04:00:26.572Z,4.98
2023-01-03T04:00:58.715Z,4.98
2023-01-03T04:01:31.664Z,4.99
2023-01-03T04:02:06.754Z,5.00
2023-01-03T04:02:39.804Z,5.01
2023-01-03T04:03:13.092Z,5.01
2023-01-03T04:03:47.503Z,5.02
2023-01-03T04:04:24.650Z,5.01
2023-01-03T04:05:00.590Z,5.01
2023-01-03T04:05:36.350Z,5.03
2023-01-03T04:06:28.065Z,5.03
2023-01-03T04:06:59.833Z,5.03
2023-01-03T04:07:31.503Z,5.04
2023-01-03T04:08:03.434Z,5.03
2023-01-03T04:08:34.924Z,5.05
2023-01-03T04:09:06.583Z,5.06
2023-01-03T04:09:38.074Z,5.08
2023-01-03T04:10:10.991Z,5.08
2023-01-03T04:10:43.065Z,5.08
2023-01-03T04:11:14.556Z,5.09
2023-01-03T04:11:46.010Z,5.10
2023-01-03T04:12:17.505Z,5.08
2023-01-03T04:12:51.835Z,5.08
2023-01-03T04:13:23.216Z,5.09
2023-01-03T04:13:54.656Z,5.12
2023-01-03T04:14:26.108Z,5.12
2023-01-03T04:14:57.525Z,5.12
2023-01-03T04:15:29.008Z,5.13
2023-01-03T04:16:00.485Z,5.11
2023-01-03T04:16:31.910Z,5.13
2023-01-03T04:17:03.370Z,5.11
2023-01-03T04:17:34.759Z,5.11
2023-01-03T04:18:06.283Z,5.11
2023-01-03T04:18:37.716Z,5.13
2023-01-03T04:19:58.173Z,5.13
2023-01-03T04:20:30.076Z,5.11
2023-01-03T04:21:01.591Z,5.13
2023-01-03T04:21:33.110Z,5.11
2023-01-03T04:22:04.488Z,5.12
2023-01-03T04:22:35.889Z,5.12
2023-01-03T04:23:07.231Z,5.12
2023-01-03T04:23:38.626Z,5.11
2023-01-03T04:24:10.180Z,5.13
2023-01-03T04:24:41.610Z,5.13
2023-01-03T04:25:12.938Z,5.14
2023-01-03T04:25:44.609Z,5.13
2023-01-03T04:26:17.099Z,5.13
2023-01-03T04:26:49.137Z,5.11
2023-01-03T04:27:20.486Z,5.10
2023-01-03T04:27:51.817Z,5.09
2023-01-03T04:28:23.215Z,5.11
2023-01-03T04:28:54.668Z,5.09
2023-01-03T04:29:26.085Z,5.09
2023-01-03T04:29:57.993Z,5.11
2023-01-03T04:30:29.380Z,5.10
2023-01-03T04:31:00.761Z,5.13
2023-01-03T04:31:32.203Z,5.11
2023-01-03T04:32:03.866Z,5.11
2023-01-03T04:32:35.392Z,5.11
2023-01-03T04:33:06.763Z,5.12
2023-01-03T04:33:38.176Z,5.12
2023-01-03T04:34:09.616Z,5.11
2023-01-03T04:34:41.087Z,5.11
2023-01-03T04:35:12.547Z,5.12
2023-01-03T04:35:44.044Z,5.12
2023-01-03T04:36:15.437Z,5.13
2023-01-03T04:36:46.774Z,5.12
2023-01-03T04:37:18.178Z,5.14
2023-01-03T04:37:49.598Z,5.11
2023-01-03T04:39:09.975Z,5.15
2023-01-03T04:39:41.430Z,5.15
2023-01-03T04:40:12.791Z,5.14
2023-01-03T04:40:44.205Z,5.13
2023-01-03T04:41:16.590Z,5.14
2023-01-03T04:41:48.014Z,5.14
2023-01-03T04:42:38.206Z,5.16
2023-01-03T04:43:29.100Z,5.17
2023-01-03T04:44:04.460Z,5.16
2023-01-03T04:44:35.804Z,5.16
2023-01-03T04:45:08.165Z,5.18
2023-01-03T04:45:39.971Z,5.17
2023-01-03T04:46:11.429Z,5.17
2023-01-03T04:46:47.615Z,5.18
2023-01-03T04:47:22.225Z,5.18
2023-01-03T04:47:54.236Z,5.17
2023-01-03T04:48:25.591Z,5.17
2023-01-03T04:48:57.581Z,5.17
2023-01-03T04:49:28.972Z,5.16
2023-01-03T04:50:00.423Z,5.14
2023-01-03T04:50:32.564Z,5.15
2023-01-03T04:51:03.935Z,5.15
2023-01-03T04:51:35.837Z,5.16
2023-01-03T04:52:07.166Z,5.17
2023-01-03T04:52:38.485Z,5.16
2023-01-03T04:53:10.393Z,5.17
2023-01-03T04:53:41.748Z,5.16
2023-01-03T04:54:13.137Z,5.17
2023-01-03T04:54:44.585Z,5.15
2023-01-03T04:55:16.825Z,5.13
2023-01-03T04:55:50.092Z,5.14
2023-01-03T04:56:32.336Z,5.15
2023-01-03T04:57:03.749Z,5.14
2023-01-03T04:57:36.343Z,5.16
2023-01-03T04:58:07.671Z,5.16
2023-01-03T04:58:39.093Z,5.14
2023-01-03T04:59:10.421Z,5.15
2023-01-03T04:59:41.782Z,5.16
2023-01-03T05:00:13.852Z,5.15
2023-01-03T05:00:45.549Z,5.16
2023-01-03T05:01:17.853Z,5.14
2023-01-03T05:01:52.277Z,5.17
2023-01-03T05:02:24.034Z,5.16
2023-01-03T05:02:55.395Z,5.15
2023-01-03T05:03:28.137Z,5.15
2023-01-03T05:04:01.408Z,5.17
2023-01-03T05:04:32.898Z,5.15
2023-01-03T05:05:04.831Z,5.16
2023-01-03T05:05:37.817Z,5.17
2023-01-03T05:06:10.605Z,5.17
2023-01-03T05:06:41.995Z,5.16
2023-01-03T05:07:13.521Z,5.17
2023-01-03T05:07:45.046Z,5.17
2023-01-03T05:08:16.397Z,5.18
2023-01-03T05:08:47.840Z,5.17
2023-01-03T05:09:19.217Z,5.17
2023-01-03T05:09:50.557Z,5.15
2023-01-03T05:10:21.889Z,5.15
2023-01-03T05:10:53.715Z,5.15
2023-01-03T05:11:25.169Z,5.16
2023-01-03T05:11:56.989Z,5.15
2023-01-03T05:12:28.366Z,5.13
2023-01-03T05:13:00.671Z,5.14
2023-01-03T05:13:33.306Z,5.14
2023-01-03T05:14:07.986Z,5.13
2023-01-03T05:14:43.957Z,5.10
2023-01-03T05:15:15.457Z,5.09
2023-01-03T05:15:47.022Z,5.09
2023-01-03T05:16:18.504Z,5.10
2023-01-03T05:16:49.929Z,5.09
2023-01-03T05:17:21.850Z,5.11
2023-01-03T05:17:53.354Z,5.12
2023-01-03T05:18:24.744Z,5.12
2023-01-03T05:18:56.502Z,5.11
2023-01-03T05:19:27.945Z,5.14
2023-01-03T05:20:17.460Z,5.12
2023-01-03T05:21:15.000Z,5.13
2023-01-03T05:22:05.052Z,5.13
2023-01-03T05:22:54.714Z,5.13
2023-01-03T05:23:44.364Z,5.13
2023-01-03T05:24:33.945Z,5.12
2023-01-03T05:25:24.250Z,5.13
2023-01-03T05:25:55.660Z,5.12
2023-01-03T05:26:27.145Z,5.12
2023-01-03T05:27:01.557Z,5.12
2023-01-03T05:27:33.121Z,5.12
2023-01-03T05:28:05.071Z,5.11
2023-01-03T05:28:36.644Z,5.12
2023-01-03T05:29:09.639Z,5.12
2023-01-03T05:29:41.253Z,5.11
2023-01-03T05:30:12.909Z,5.09
2023-01-03T05:30:44.421Z,5.11
2023-01-03T05:31:15.912Z,5.13
2023-01-03T05:31:47.758Z,5.13
2023-01-03T05:32:19.272Z,5.13
2023-01-03T05:32:50.673Z,5.13
2023-01-03T05:33:22.106Z,5.11
2023-01-03T05:33:53.558Z,5.14
2023-01-03T05:34:24.912Z,5.14
2023-01-03T05:34:56.314Z,5.14
2023-01-03T05:35:27.741Z,5.13
2023-01-03T05:35:59.306Z,5.14
2023-01-03T05:36:30.754Z,5.14
2023-01-03T05:37:02.122Z,5.11
2023-01-03T05:37:33.485Z,5.10
2023-01-03T05:38:05.192Z,5.13
2023-01-03T05:38:37.361Z,5.12
2023-01-03T05:39:08.769Z,5.13
2023-01-03T05:39:40.112Z,5.13
2023-01-03T05:40:11.899Z,5.14
2023-01-03T05:40:44.141Z,5.13
2023-01-03T05:41:35.788Z,5.13
2023-01-03T05:42:07.253Z,5.13
2023-01-03T05:42:38.597Z,5.12
2023-01-03T05:43:10.612Z,5.13
2023-01-03T05:43:43.057Z,5.13
2023-01-03T05:44:14.442Z,5.12
2023-01-03T05:44:45.781Z,5.12
2023-01-03T05:45:17.418Z,5.10
2023-01-03T05:45:51.519Z,5.14
2023-01-03T05:46:23.028Z,5.13
2023-01-03T05:46:54.445Z,5.12
2023-01-03T05:47:26.029Z,5.12
2023-01-03T05:47:58.544Z,5.09
2023-01-03T05:48:29.868Z,5.08
2023-01-03T05:49:01.319Z,5.09
2023-01-03T05:49:34.220Z,5.11
2023-01-03T05:50:06.180Z,5.11
2023-01-03T05:50:37.759Z,5.09
2023-01-03T05:51:09.162Z,5.08
2023-01-03T05:51:40.917Z,5.08
2023-01-03T05:52:12.252Z,5.07
2023-01-03T05:52:43.714Z,5.05
2023-01-03T05:53:15.556Z,5.07
2023-01-03T05:53:46.904Z,5.07
2023-01-03T05:54:20.291Z,5.05
2023-01-03T05:54:52.141Z,5.04
2023-01-03T05:55:23.990Z,5.05
2023-01-03T05:55:55.385Z,5.04
2023-01-03T05:56:26.853Z,5.05
2023-01-03T05:56:58.261Z,5.02
2023-01-03T05:57:35.223Z,5.03
2023-01-03T05:58:07.980Z,5.02
2023-01-03T05:58:39.329Z,5.02
2023-01-03T05:59:11.105Z,5.02
2023-01-03T05:59:42.510Z,5.00
2023-01-03T06:00:14.896Z,5.01
2023-01-03T06:00:46.313Z,4.99
2023-01-03T06:01:18.067Z,4.98
2023-01-03T06:01:49.980Z,4.99
2023-01-03T06:02:21.513Z,4.97
2023-01-03T06:02:52.935Z,4.97
2023-01-03T06:03:24.286Z,4.97
2023-01-03T06:03:56.055Z,4.96
2023-01-03T06:04:27.557Z,4.94
2023-01-03T06:04:59.183Z,4.95
2023-01-03T06:05:30.571Z,4.95
2023-01-03T06:06:04.070Z,4.94
2023-01-03T06:06:35.475Z,4.93
2023-01-03T06:07:06.921Z,4.93
2023-01-03T06:07:38.314Z,4.92
2023-01-03T06:08:09.711Z,4.90
2023-01-03T06:08:41.684Z,4.92
2023-01-03T06:09:13.039Z,4.91
2023-01-03T06:09:44.386Z,4.91
2023-01-03T06:10:15.989Z,4.90
2023-01-03T06:10:47.603Z,4.90
2023-01-03T06:11:19.239Z,4.90
2023-01-03T06:11:50.597Z,4.88
2023-01-03T06:12:21.963Z,4.89
2023-01-03T06:12:53.355Z,4.89
2023-01-03T06:13:24.752Z,4.88
2023-01-03T06:13:56.138Z,4.89
2023-01-03T06:14:27.493Z,4.89
2023-01-03T06:14:59.097Z,4.88
2023-01-03T06:15:30.522Z,4.86
2023-01-03T06:16:25.694Z,4.86
2023-01-03T06:17:15.616Z,4.88
2023-01-03T06:17:57.828Z,4.86
2023-01-03T06:18:29.761Z,4.85
2023-01-03T06:19:02.807Z,4.86
2023-01-03T06:19:34.268Z,4.84
2023-01-03T06:20:06.054Z,4.86
2023-01-03T06:20:37.381Z,4.84
2023-01-03T06:21:08.698Z,4.86
2023-01-03T06:21:41.543Z,4.85
2023-01-03T06:22:13.036Z,4.84
2023-01-03T06:22:44.450Z,4.83
2023-01-03T06:23:15.789Z,4.84
2023-01-03T06:23:50.071Z,4.84
2023-01-03T06:24:21.447Z,4.83
2023-01-03T06:24:52.834Z,4.83
2023-01-03T06:25:24.519Z,4.82
2023-01-03T06:25:55.953Z,4.83
2023-01-03T06:26:27.688Z,4.83
2023-01-03T06:26:59.134Z,4.82
2023-01-03T06:27:30.562Z,4.81
2023-01-03T06:28:01.932Z,4.81
2023-01-03T06:28:33.325Z,4.82
2023-01-03T06:29:06.220Z,4.81
2023-01-03T06:29:37.613Z,4.80
2023-01-03T06:30:09.816Z,4.81
2023-01-03T06:30:42.821Z,4.80
2023-01-03T06:31:14.761Z,4.80
2023-01-03T06:31:46.138Z,4.80
2023-01-03T06:32:17.686Z,4.80
2023-01-03T06:32:49.438Z,4.80
2023-01-03T06:33:20.812Z,4.81
2023-01-03T06:33:52.226Z,4.81
2023-01-03T06:34:23.560Z,4.80
2023-01-03T06:34:54.930Z,4.79
2023-01-03T06:35:26.412Z,4.80
2023-01-03T06:35:57.883Z,4.77
2023-01-03T06:36:29.587Z,4.79
2023-01-03T06:37:00.933Z,4.80
2023-01-03T06:37:32.323Z,4.80
2023-01-03T06:38:03.870Z,4.79
2023-01-03T06:38:35.718Z,4.78
2023-01-03T06:39:07.286Z,4.80
2023-01-03T06:39:38.811Z,4.80
2023-01-03T06:40:10.778Z,4.79
2023-01-03T06:40:48.106Z,4.80
2023-01-03T06:41:19.726Z,4.77
2023-01-03T06:41:51.162Z,4.79
2023-01-03T06:42:42.825Z,4.79
2023-01-03T06:43:14.736Z,4.78
2023-01-03T06:43:46.502Z,4.77
2023-01-03T06:44:17.917Z,4.77
2023-01-03T06:45:08.529Z,4.77
2023-01-03T06:46:01.670Z,4.76
2023-01-03T06:46:51.867Z,4.75
2023-01-03T06:47:41.723Z,4.74
2023-01-03T06:48:31.600Z,4.74
2023-01-03T06:49:21.818Z,4.73
2023-01-03T06:50:11.521Z,4.71
2023-01-03T06:51:01.780Z,4.72
2023-01-03T06:51:52.730Z,4.70
2023-01-03T06:52:42.768Z,4.70
2023-01-03T06:53:17.574Z,4.71
2023-01-03T06:53:49.123Z,4.70
2023-01-03T06:54:48.555Z,4.71
2023-01-03T06:55:20.413Z,4.71
2023-01-03T06:55:56.920Z,4.70
2023-01-03T06:56:28.879Z,4.69
2023-01-03T06:57:00.308Z,4.71
2023-01-03T06:57:31.731Z,4.72
2023-01-03T06:58:03.055Z,4.72
2023-01-03T06:58:35.047Z,4.72
2023-01-03T06:59:06.576Z,4.72
2023-01-03T06:59:56.676Z,4.73
2023-01-03T07:00:28.060Z,4.72
2023-01-03T07:01:04.489Z,4.71
2023-01-03T07:01:36.467Z,4.71
2023-01-03T07:02:08.068Z,4.71
2023-01-03T07:02:39.549Z,4.71
2023-01-03T07:03:11.749Z,4.70
2023-01-03T07:03:43.306Z,4.70
2023-01-03T07:04:15.325Z,4.68
2023-01-03T07:04:46.815Z,4.69
2023-01-03T07:05:18.190Z,4.67
2023-01-03T07:05:49.972Z,4.68
2023-01-03T07:06:21.424Z,4.67
2023-01-03T07:06:53.110Z,4.67
2023-01-03T07:07:26.059Z,4.70
2023-01-03T07:07:57.553Z,4.69
2023-01-03T07:08:29.100Z,4.70
2023-01-03T07:09:00.482Z,4.71
2023-01-03T07:09:31.968Z,4.72
2023-01-03T07:10:21.864Z,4.72
2023-01-03T07:10:54.910Z,4.71
2023-01-03T07:11:26.799Z,4.68
2023-01-03T07:12:18.292Z,4.70
2023-01-03T07:13:09.153Z,4.69
2023-01-03T07:14:47.853Z,4.72
2023-01-03T07:15:19.233Z,4.72
2023-01-03T07:15:50.718Z,4.72
2023-01-03T07:16:22.367Z,4.73
2023-01-03T07:17:12.687Z,4.74
2023-01-03T07:17:44.079Z,4.72
2023-01-03T07:18:15.485Z,4.75
2023-01-03T07:18:54.781Z,4.75
2023-01-03T07:19:26.898Z,4.74
2023-01-03T07:19:58.286Z,4.75
2023-01-03T07:20:29.671Z,4.74
2023-01-03T07:21:01.085Z,4.75
2023-01-03T07:21:34.588Z,4.74
2023-01-03T07:22:05.938Z,4.76
2023-01-03T07:22:37.330Z,4.77
2023-01-03T07:23:08.922Z,4.76
2023-01-03T07:23:40.291Z,4.78
2023-01-03T07:24:14.311Z,4.77
2023-01-03T07:24:45.682Z,4.78
2023-01-03T07:25:17.100Z,4.79
2023-01-03T07:25:48.505Z,4.76
2023-01-03T07:26:20.229Z,4.79
2023-01-03T07:26:51.608Z,4.78
2023-01-03T07:27:23.050Z,4.78
2023-01-03T07:28:03.616Z,4.76
2023-01-03T07:28:37.311Z,4.79
2023-01-03T07:29:10.055Z,4.79
2023-01-03T07:29:41.483Z,4.80
2023-01-03T07:30:13.355Z,4.81
2023-01-03T07:30:46.410Z,4.80
2023-01-03T07:31:18.377Z,4.81
2023-01-03T07:31:49.750Z,4.81
2023-01-03T07:32:21.130Z,4.82
2023-01-03T07:32:52.518Z,4.81
2023-01-03T07:33:23.870Z,4.80
2023-01-03T07:33:55.218Z,4.81
2023-01-03T07:34:26.836Z,4.82
2023-01-03T07:34:58.183Z,4.83
2023-01-03T07:35:32.507Z,4.83
2023-01-03T07:36:11.449Z,4.83
2023-01-03T07:36:43.307Z,4.85
2023-01-03T07:37:14.694Z,4.84
2023-01-03T07:37:46.082Z,4.84
2023-01-03T07:38:17.493Z,4.83
2023-01-03T07:38:48.912Z,4.83
2023-01-03T07:39:20.302Z,4.85
2023-01-03T07:39:51.679Z,4.85
2023-01-03T07:40:23.146Z,4.85
2023-01-03T07:41:01.321Z,4.85
2023-01-03T07:41:56.013Z,4.85
2023-01-03T07:42:45.981Z,4.85
2023-01-03T07:43:40.175Z,4.85
2023-01-03T07:44:11.512Z,4.85
2023-01-03T07:44:42.914Z,4.86
2023-01-03T07:45:14.385Z,4.85
2023-01-03T07:45:46.560Z,4.86
2023-01-03T07:47:12.828Z,4.88
2023-01-03T07:47:46.966Z,4.86
2023-01-03T07:48:18.523Z,4.88
2023-01-03T07:48:56.976Z,4.87
2023-01-03T07:49:28.325Z,4.85
2023-01-03T07:49:59.689Z,4.86
2023-01-03T07:50:31.198Z,4.85
2023-01-03T07:51:03.574Z,4.87
2023-01-03T07:51:35.026Z,4.86
2023-01-03T07:52:06.567Z,4.86
2023-01-03T07:52:37.948Z,4.85
2023-01-03T07:53:10.046Z,4.84
2023-01-03T07:53:42.377Z,4.88
2023-01-03T07:54:13.732Z,4.86
2023-01-03T07:54:45.125Z,4.86
2023-01-03T07:55:16.629Z,4.86
2023-01-03T07:55:48.044Z,4.86
2023-01-03T07:56:21.123Z,4.88
2023-01-03T07:56:52.567Z,4.85
2023-01-03T07:57:23.990Z,4.85
2023-01-03T07:57:56.314Z,4.89
2023-01-03T07:58:27.634Z,4.89
2023-01-03T07:58:59.507Z,4.90
2023-01-03T07:59:30.870Z,4.88
2023-01-03T08:00:02.475Z,4.90
2023-01-03T08:00:33.924Z,4.91